sensor_id;sensor_type;location;lat;lon;timestamp;P1;durP1;ratioP1;P2;durP2;ratioP2
10509;SDS011;5303;53.266;10.410;2023-08-30T00:02:06;4.50;;;3.67;;
10509;SDS011;5303;53.266;10.410;2023-08-30T00:04:33;4.83;;;3.37;;
10509;SDS011;5303;53.266;10.410;2023-08-30T00:06:59;4.43;;;3.23;;
10509;SDS011;5303;53.266;10.410;2023-08-30T00:09:24;3.73;;;3.07;;
10509;SDS011;5303;53.266;10.410;2023-08-30T00:11:50;3.30;;;2.73;;
10509;SDS011;5303;53.266;10.410;2023-08-30T00:14:15;4.47;;;3.23;;
10509;SDS011;5303;53.266;10.410;2023-08-30T00:16:40;4.33;;;3.20;;
10509;SDS011;5303;53.266;10.410;2023-08-30T00:19:06;4.90;;;3.10;;
10509;SDS011;5303;53.266;10.410;2023-08-30T00:21:31;2.87;;;2.60;;
10509;SDS011;5303;53.266;10.410;2023-08-30T00:23:57;3.13;;;2.67;;
10509;SDS011;5303;53.266;10.410;2023-08-30T00:26:22;3.20;;;2.90;;
10509;SDS011;5303;53.266;10.410;2023-08-30T00:28:47;3.40;;;3.00;;
10509;SDS011;5303;53.266;10.410;2023-08-30T00:31:13;3.27;;;2.80;;
10509;SDS011;5303;53.266;10.410;2023-08-30T00:33:38;2.83;;;2.60;;
10509;SDS011;5303;53.266;10.410;2023-08-30T00:36:03;4.73;;;2.63;;
10509;SDS011;5303;53.266;10.410;2023-08-30T00:38:29;3.10;;;2.90;;
10509;SDS011;5303;53.266;10.410;2023-08-30T00:40:55;3.47;;;3.13;;
10509;SDS011;5303;53.266;10.410;2023-08-30T00:43:20;3.67;;;2.70;;
10509;SDS011;5303;53.266;10.410;2023-08-30T00:45:46;4.37;;;3.07;;
10509;SDS011;5303;53.266;10.410;2023-08-30T00:48:12;3.37;;;3.03;;
10509;SDS011;5303;53.266;10.410;2023-08-30T00:50:38;4.43;;;3.50;;
10509;SDS011;5303;53.266;10.410;2023-08-30T00:53:04;3.57;;;3.13;;
10509;SDS011;5303;53.266;10.410;2023-08-30T00:55:32;2.70;;;2.50;;
10509;SDS011;5303;53.266;10.410;2023-08-30T00:57:59;3.90;;;3.00;;
10509;SDS011;5303;53.266;10.410;2023-08-30T01:00:25;3.40;;;3.10;;
10509;SDS011;5303;53.266;10.410;2023-08-30T01:02:52;3.93;;;2.50;;
10509;SDS011;5303;53.266;10.410;2023-08-30T01:05:18;3.20;;;2.90;;
10509;SDS011;5303;53.266;10.410;2023-08-30T01:07:43;4.03;;;2.77;;
10509;SDS011;5303;53.266;10.410;2023-08-30T01:10:08;4.27;;;3.20;;
10509;SDS011;5303;53.266;10.410;2023-08-30T01:12:48;3.57;;;2.80;;
10509;SDS011;5303;53.266;10.410;2023-08-30T01:15:18;3.53;;;2.70;;
10509;SDS011;5303;53.266;10.410;2023-08-30T01:17:47;3.73;;;2.93;;
10509;SDS011;5303;53.266;10.410;2023-08-30T01:20:13;3.37;;;2.80;;
10509;SDS011;5303;53.266;10.410;2023-08-30T01:25:32;3.50;;;2.87;;
10509;SDS011;5303;53.266;10.410;2023-08-30T01:28:01;3.73;;;2.93;;
10509;SDS011;5303;53.266;10.410;2023-08-30T01:30:31;3.70;;;3.00;;
10509;SDS011;5303;53.266;10.410;2023-08-30T01:32:59;4.83;;;2.73;;
10509;SDS011;5303;53.266;10.410;2023-08-30T01:35:25;6.80;;;3.23;;
10509;SDS011;5303;53.266;10.410;2023-08-30T01:37:57;4.27;;;3.17;;
10509;SDS011;5303;53.266;10.410;2023-08-30T01:40:23;3.97;;;2.90;;
10509;SDS011;5303;53.266;10.410;2023-08-30T01:46:10;3.57;;;3.27;;
10509;SDS011;5303;53.266;10.410;2023-08-30T01:48:36;4.03;;;2.87;;
10509;SDS011;5303;53.266;10.410;2023-08-30T01:51:02;3.93;;;3.10;;
10509;SDS011;5303;53.266;10.410;2023-08-30T01:53:28;4.23;;;3.30;;
10509;SDS011;5303;53.266;10.410;2023-08-30T01:55:55;3.90;;;3.30;;
10509;SDS011;5303;53.266;10.410;2023-08-30T01:58:21;3.63;;;3.33;;
10509;SDS011;5303;53.266;10.410;2023-08-30T02:00:46;3.37;;;3.03;;
10509;SDS011;5303;53.266;10.410;2023-08-30T02:03:12;3.40;;;3.07;;
10509;SDS011;5303;53.266;10.410;2023-08-30T02:05:44;3.53;;;3.23;;
10509;SDS011;5303;53.266;10.410;2023-08-30T02:08:21;4.17;;;3.37;;
10509;SDS011;5303;53.266;10.410;2023-08-30T02:10:52;4.80;;;3.03;;
10509;SDS011;5303;53.266;10.410;2023-08-30T02:13:26;4.27;;;3.43;;
10509;SDS011;5303;53.266;10.410;2023-08-30T02:15:55;5.97;;;3.43;;
10509;SDS011;5303;53.266;10.410;2023-08-30T02:18:22;4.23;;;3.73;;
10509;SDS011;5303;53.266;10.410;2023-08-30T02:20:48;4.00;;;3.60;;
10509;SDS011;5303;53.266;10.410;2023-08-30T02:23:14;3.60;;;3.30;;
10509;SDS011;5303;53.266;10.410;2023-08-30T02:25:39;3.50;;;3.20;;
10509;SDS011;5303;53.266;10.410;2023-08-30T02:28:04;4.37;;;3.87;;
10509;SDS011;5303;53.266;10.410;2023-08-30T02:30:30;4.20;;;3.80;;
10509;SDS011;5303;53.266;10.410;2023-08-30T02:32:55;4.40;;;3.43;;
10509;SDS011;5303;53.266;10.410;2023-08-30T02:35:20;4.30;;;3.90;;
10509;SDS011;5303;53.266;10.410;2023-08-30T02:37:46;3.90;;;3.50;;
10509;SDS011;5303;53.266;10.410;2023-08-30T02:40:11;4.97;;;3.70;;
10509;SDS011;5303;53.266;10.410;2023-08-30T02:42:36;6.43;;;3.70;;
10509;SDS011;5303;53.266;10.410;2023-08-30T02:45:01;3.97;;;3.57;;
10509;SDS011;5303;53.266;10.410;2023-08-30T02:47:27;4.33;;;3.80;;
10509;SDS011;5303;53.266;10.410;2023-08-30T02:49:52;5.13;;;3.53;;
10509;SDS011;5303;53.266;10.410;2023-08-30T02:52:17;3.87;;;3.40;;
10509;SDS011;5303;53.266;10.410;2023-08-30T02:54:43;3.87;;;3.47;;
10509;SDS011;5303;53.266;10.410;2023-08-30T02:57:08;4.33;;;3.47;;
10509;SDS011;5303;53.266;10.410;2023-08-30T02:59:33;3.80;;;3.40;;
10509;SDS011;5303;53.266;10.410;2023-08-30T03:05:20;4.50;;;3.40;;
10509;SDS011;5303;53.266;10.410;2023-08-30T03:07:45;3.60;;;3.30;;
10509;SDS011;5303;53.266;10.410;2023-08-30T03:10:11;4.20;;;3.70;;
10509;SDS011;5303;53.266;10.410;2023-08-30T03:12:37;4.73;;;3.70;;
10509;SDS011;5303;53.266;10.410;2023-08-30T03:15:02;7.27;;;3.40;;
10509;SDS011;5303;53.266;10.410;2023-08-30T03:17:29;4.60;;;3.20;;
10509;SDS011;5303;53.266;10.410;2023-08-30T03:19:54;3.60;;;3.30;;
10509;SDS011;5303;53.266;10.410;2023-08-30T03:22:19;5.17;;;3.30;;
10509;SDS011;5303;53.266;10.410;2023-08-30T03:24:45;3.80;;;3.50;;
10509;SDS011;5303;53.266;10.410;2023-08-30T03:27:10;4.47;;;3.17;;
10509;SDS011;5303;53.266;10.410;2023-08-30T03:29:35;3.70;;;3.30;;
10509;SDS011;5303;53.266;10.410;2023-08-30T03:32:00;4.03;;;3.30;;
10509;SDS011;5303;53.266;10.410;2023-08-30T03:34:26;3.53;;;3.13;;
10509;SDS011;5303;53.266;10.410;2023-08-30T03:36:51;4.50;;;4.10;;
10509;SDS011;5303;53.266;10.410;2023-08-30T03:39:19;4.07;;;3.67;;
10509;SDS011;5303;53.266;10.410;2023-08-30T03:41:45;4.40;;;3.63;;
10509;SDS011;5303;53.266;10.410;2023-08-30T03:44:10;4.13;;;3.70;;
10509;SDS011;5303;53.266;10.410;2023-08-30T03:46:36;4.93;;;4.00;;
10509;SDS011;5303;53.266;10.410;2023-08-30T03:49:01;4.83;;;4.40;;
10509;SDS011;5303;53.266;10.410;2023-08-30T03:51:28;7.53;;;3.83;;
10509;SDS011;5303;53.266;10.410;2023-08-30T03:53:53;4.80;;;4.30;;
10509;SDS011;5303;53.266;10.410;2023-08-30T03:56:21;5.07;;;4.57;;
10509;SDS011;5303;53.266;10.410;2023-08-30T03:58:46;3.97;;;3.67;;
10509;SDS011;5303;53.266;10.410;2023-08-30T04:01:11;5.43;;;4.40;;
10509;SDS011;5303;53.266;10.410;2023-08-30T04:03:37;4.30;;;3.90;;
10509;SDS011;5303;53.266;10.410;2023-08-30T04:06:02;4.80;;;3.80;;
10509;SDS011;5303;53.266;10.410;2023-08-30T04:08:27;4.43;;;4.03;;
10509;SDS011;5303;53.266;10.410;2023-08-30T04:10:53;4.80;;;4.30;;
10509;SDS011;5303;53.266;10.410;2023-08-30T04:13:18;4.13;;;3.73;;
10509;SDS011;5303;53.266;10.410;2023-08-30T04:15:44;4.10;;;3.70;;
10509;SDS011;5303;53.266;10.410;2023-08-30T04:18:09;4.03;;;3.63;;
10509;SDS011;5303;53.266;10.410;2023-08-30T04:20:34;6.30;;;4.53;;
10509;SDS011;5303;53.266;10.410;2023-08-30T04:23:00;6.33;;;4.73;;
10509;SDS011;5303;53.266;10.410;2023-08-30T04:25:29;7.00;;;5.00;;
10509;SDS011;5303;53.266;10.410;2023-08-30T04:27:55;5.20;;;4.70;;
10509;SDS011;5303;53.266;10.410;2023-08-30T04:30:21;5.57;;;4.70;;
10509;SDS011;5303;53.266;10.410;2023-08-30T04:32:46;5.37;;;4.87;;
10509;SDS011;5303;53.266;10.410;2023-08-30T04:35:12;5.37;;;4.80;;
10509;SDS011;5303;53.266;10.410;2023-08-30T04:37:37;6.57;;;4.57;;
10509;SDS011;5303;53.266;10.410;2023-08-30T04:40:05;5.10;;;4.60;;
10509;SDS011;5303;53.266;10.410;2023-08-30T04:42:37;4.67;;;4.27;;
10509;SDS011;5303;53.266;10.410;2023-08-30T04:45:04;4.60;;;4.20;;
10509;SDS011;5303;53.266;10.410;2023-08-30T04:47:30;4.80;;;4.30;;
10509;SDS011;5303;53.266;10.410;2023-08-30T04:49:56;6.43;;;4.57;;
10509;SDS011;5303;53.266;10.410;2023-08-30T04:52:22;6.83;;;4.80;;
10509;SDS011;5303;53.266;10.410;2023-08-30T04:54:47;4.80;;;4.30;;
10509;SDS011;5303;53.266;10.410;2023-08-30T04:57:14;6.03;;;4.67;;
10509;SDS011;5303;53.266;10.410;2023-08-30T04:59:41;4.93;;;4.40;;
10509;SDS011;5303;53.266;10.410;2023-08-30T05:02:09;5.10;;;4.60;;
10509;SDS011;5303;53.266;10.410;2023-08-30T05:04:35;4.73;;;4.33;;
10509;SDS011;5303;53.266;10.410;2023-08-30T05:07:01;5.03;;;4.00;;
10509;SDS011;5303;53.266;10.410;2023-08-30T05:09:27;4.17;;;3.77;;
10509;SDS011;5303;53.266;10.410;2023-08-30T05:11:53;4.70;;;4.30;;
10509;SDS011;5303;53.266;10.410;2023-08-30T05:14:19;5.87;;;4.53;;
10509;SDS011;5303;53.266;10.410;2023-08-30T05:16:44;4.80;;;4.30;;
10509;SDS011;5303;53.266;10.410;2023-08-30T05:19:10;5.03;;;4.30;;
10509;SDS011;5303;53.266;10.410;2023-08-30T05:21:35;5.00;;;4.60;;
10509;SDS011;5303;53.266;10.410;2023-08-30T05:24:01;6.07;;;4.90;;
10509;SDS011;5303;53.266;10.410;2023-08-30T05:26:26;6.10;;;4.97;;
10509;SDS011;5303;53.266;10.410;2023-08-30T05:28:52;6.27;;;5.57;;
10509;SDS011;5303;53.266;10.410;2023-08-30T05:31:17;6.73;;;5.60;;
10509;SDS011;5303;53.266;10.410;2023-08-30T05:33:42;6.83;;;5.97;;
10509;SDS011;5303;53.266;10.410;2023-08-30T05:36:07;7.60;;;6.00;;
10509;SDS011;5303;53.266;10.410;2023-08-30T05:38:33;7.17;;;5.60;;
10509;SDS011;5303;53.266;10.410;2023-08-30T05:40:58;7.73;;;5.90;;
10509;SDS011;5303;53.266;10.410;2023-08-30T05:43:23;8.10;;;6.13;;
10509;SDS011;5303;53.266;10.410;2023-08-30T05:45:48;6.40;;;5.80;;
10509;SDS011;5303;53.266;10.410;2023-08-30T05:48:14;7.00;;;6.20;;
10509;SDS011;5303;53.266;10.410;2023-08-30T05:50:39;7.87;;;6.43;;
10509;SDS011;5303;53.266;10.410;2023-08-30T05:53:05;9.80;;;6.67;;
10509;SDS011;5303;53.266;10.410;2023-08-30T05:55:31;12.23;;;6.00;;
10509;SDS011;5303;53.266;10.410;2023-08-30T05:57:56;7.30;;;6.07;;
10509;SDS011;5303;53.266;10.410;2023-08-30T06:00:21;9.10;;;6.57;;
10509;SDS011;5303;53.266;10.410;2023-08-30T06:02:47;6.90;;;6.27;;
10509;SDS011;5303;53.266;10.410;2023-08-30T06:05:12;8.30;;;7.13;;
10509;SDS011;5303;53.266;10.410;2023-08-30T06:07:37;8.43;;;7.53;;
10509;SDS011;5303;53.266;10.410;2023-08-30T06:10:03;10.03;;;7.57;;
10509;SDS011;5303;53.266;10.410;2023-08-30T06:12:29;10.13;;;8.30;;
10509;SDS011;5303;53.266;10.410;2023-08-30T06:14:55;11.97;;;8.20;;
10509;SDS011;5303;53.266;10.410;2023-08-30T06:17:21;10.27;;;8.20;;
10509;SDS011;5303;53.266;10.410;2023-08-30T06:19:46;11.70;;;8.50;;
10509;SDS011;5303;53.266;10.410;2023-08-30T06:22:12;8.60;;;7.40;;
10509;SDS011;5303;53.266;10.410;2023-08-30T06:24:37;12.13;;;8.60;;
10509;SDS011;5303;53.266;10.410;2023-08-30T06:27:03;9.17;;;7.23;;
10509;SDS011;5303;53.266;10.410;2023-08-30T06:29:28;8.17;;;7.17;;
10509;SDS011;5303;53.266;10.410;2023-08-30T06:31:53;8.33;;;6.80;;
10509;SDS011;5303;53.266;10.410;2023-08-30T06:34:19;7.40;;;6.63;;
10509;SDS011;5303;53.266;10.410;2023-08-30T06:36:44;9.40;;;6.67;;
10509;SDS011;5303;53.266;10.410;2023-08-30T06:39:10;6.73;;;6.03;;
10509;SDS011;5303;53.266;10.410;2023-08-30T06:41:35;7.00;;;6.30;;
10509;SDS011;5303;53.266;10.410;2023-08-30T06:44:01;6.77;;;6.07;;
10509;SDS011;5303;53.266;10.410;2023-08-30T06:46:26;7.40;;;6.60;;
10509;SDS011;5303;53.266;10.410;2023-08-30T06:48:51;6.03;;;5.43;;
10509;SDS011;5303;53.266;10.410;2023-08-30T06:51:17;6.17;;;5.07;;
10509;SDS011;5303;53.266;10.410;2023-08-30T06:53:42;7.23;;;5.53;;
10509;SDS011;5303;53.266;10.410;2023-08-30T06:56:07;5.67;;;5.07;;
10509;SDS011;5303;53.266;10.410;2023-08-30T06:58:32;6.13;;;4.97;;
10509;SDS011;5303;53.266;10.410;2023-08-30T07:00:58;5.37;;;4.87;;
10509;SDS011;5303;53.266;10.410;2023-08-30T07:03:23;5.40;;;4.90;;
10509;SDS011;5303;53.266;10.410;2023-08-30T07:05:50;5.90;;;5.30;;
10509;SDS011;5303;53.266;10.410;2023-08-30T07:08:16;5.20;;;4.70;;
10509;SDS011;5303;53.266;10.410;2023-08-30T07:10:41;6.67;;;5.40;;
10509;SDS011;5303;53.266;10.410;2023-08-30T07:13:07;6.57;;;5.93;;
10509;SDS011;5303;53.266;10.410;2023-08-30T07:15:36;6.17;;;5.57;;
10509;SDS011;5303;53.266;10.410;2023-08-30T07:18:01;4.93;;;4.30;;
10509;SDS011;5303;53.266;10.410;2023-08-30T07:20:28;7.43;;;6.37;;
10509;SDS011;5303;53.266;10.410;2023-08-30T07:22:54;6.03;;;5.40;;
10509;SDS011;5303;53.266;10.410;2023-08-30T07:25:19;5.13;;;4.63;;
10509;SDS011;5303;53.266;10.410;2023-08-30T07:27:44;6.47;;;4.73;;
10509;SDS011;5303;53.266;10.410;2023-08-30T07:30:10;5.97;;;5.07;;
10509;SDS011;5303;53.266;10.410;2023-08-30T07:32:35;6.57;;;4.77;;
10509;SDS011;5303;53.266;10.410;2023-08-30T07:35:03;5.73;;;4.57;;
10509;SDS011;5303;53.266;10.410;2023-08-30T07:37:28;6.50;;;5.30;;
10509;SDS011;5303;53.266;10.410;2023-08-30T07:39:54;5.83;;;4.47;;
10509;SDS011;5303;53.266;10.410;2023-08-30T07:42:19;8.03;;;4.40;;
10509;SDS011;5303;53.266;10.410;2023-08-30T07:44:45;6.77;;;4.60;;
10509;SDS011;5303;53.266;10.410;2023-08-30T07:47:10;5.50;;;4.23;;
10509;SDS011;5303;53.266;10.410;2023-08-30T07:49:35;5.03;;;4.53;;
10509;SDS011;5303;53.266;10.410;2023-08-30T07:52:01;5.27;;;4.77;;
10509;SDS011;5303;53.266;10.410;2023-08-30T07:54:26;4.83;;;4.30;;
10509;SDS011;5303;53.266;10.410;2023-08-30T07:56:52;5.90;;;4.90;;
10509;SDS011;5303;53.266;10.410;2023-08-30T07:59:17;5.13;;;4.33;;
10509;SDS011;5303;53.266;10.410;2023-08-30T08:01:42;5.83;;;4.97;;
10509;SDS011;5303;53.266;10.410;2023-08-30T08:04:08;6.27;;;4.43;;
10509;SDS011;5303;53.266;10.410;2023-08-30T08:06:33;5.80;;;5.00;;
10509;SDS011;5303;53.266;10.410;2023-08-30T08:08:58;5.23;;;4.70;;
10509;SDS011;5303;53.266;10.410;2023-08-30T08:11:25;5.17;;;4.53;;
10509;SDS011;5303;53.266;10.410;2023-08-30T08:13:50;8.30;;;5.80;;
10509;SDS011;5303;53.266;10.410;2023-08-30T08:16:15;7.80;;;6.03;;
10509;SDS011;5303;53.266;10.410;2023-08-30T08:18:41;5.83;;;4.60;;
10509;SDS011;5303;53.266;10.410;2023-08-30T08:21:06;8.57;;;5.90;;
10509;SDS011;5303;53.266;10.410;2023-08-30T08:23:31;6.87;;;5.50;;
10509;SDS011;5303;53.266;10.410;2023-08-30T08:25:57;6.97;;;5.80;;
10509;SDS011;5303;53.266;10.410;2023-08-30T08:28:27;5.93;;;4.93;;
10509;SDS011;5303;53.266;10.410;2023-08-30T08:30:52;7.03;;;6.37;;
10509;SDS011;5303;53.266;10.410;2023-08-30T08:33:18;6.47;;;5.70;;
10509;SDS011;5303;53.266;10.410;2023-08-30T08:35:43;9.30;;;6.83;;
10509;SDS011;5303;53.266;10.410;2023-08-30T08:38:09;8.37;;;6.70;;
10509;SDS011;5303;53.266;10.410;2023-08-30T08:40:38;6.23;;;5.63;;
10509;SDS011;5303;53.266;10.410;2023-08-30T08:43:04;6.37;;;5.53;;
10509;SDS011;5303;53.266;10.410;2023-08-30T08:45:31;7.40;;;6.00;;
10509;SDS011;5303;53.266;10.410;2023-08-30T08:47:59;6.07;;;5.37;;
10509;SDS011;5303;53.266;10.410;2023-08-30T08:50:26;8.53;;;6.70;;
10509;SDS011;5303;53.266;10.410;2023-08-30T08:56:15;6.60;;;5.87;;
10509;SDS011;5303;53.266;10.410;2023-08-30T08:58:42;5.50;;;4.87;;
10509;SDS011;5303;53.266;10.410;2023-08-30T09:01:08;5.73;;;5.13;;
10509;SDS011;5303;53.266;10.410;2023-08-30T09:03:34;5.93;;;5.33;;
10509;SDS011;5303;53.266;10.410;2023-08-30T09:06:00;6.97;;;6.07;;
10509;SDS011;5303;53.266;10.410;2023-08-30T09:08:27;12.93;;;8.03;;
10509;SDS011;5303;53.266;10.410;2023-08-30T09:10:52;7.33;;;5.83;;
10509;SDS011;5303;53.266;10.410;2023-08-30T09:13:18;5.73;;;5.13;;
10509;SDS011;5303;53.266;10.410;2023-08-30T09:15:44;5.50;;;4.83;;
10509;SDS011;5303;53.266;10.410;2023-08-30T09:18:16;8.13;;;4.83;;
10509;SDS011;5303;53.266;10.410;2023-08-30T09:20:42;8.93;;;5.73;;
10509;SDS011;5303;53.266;10.410;2023-08-30T09:23:16;7.70;;;5.57;;
10509;SDS011;5303;53.266;10.410;2023-08-30T09:25:42;6.57;;;4.80;;
10509;SDS011;5303;53.266;10.410;2023-08-30T09:28:08;7.07;;;4.87;;
10509;SDS011;5303;53.266;10.410;2023-08-30T09:30:34;5.93;;;4.53;;
10509;SDS011;5303;53.266;10.410;2023-08-30T09:33:02;5.97;;;5.37;;
10509;SDS011;5303;53.266;10.410;2023-08-30T09:35:28;6.00;;;5.33;;
10509;SDS011;5303;53.266;10.410;2023-08-30T09:37:54;5.90;;;5.30;;
10509;SDS011;5303;53.266;10.410;2023-08-30T09:40:19;7.10;;;5.30;;
10509;SDS011;5303;53.266;10.410;2023-08-30T09:42:45;8.77;;;6.03;;
10509;SDS011;5303;53.266;10.410;2023-08-30T09:45:23;6.67;;;5.53;;
10509;SDS011;5303;53.266;10.410;2023-08-30T09:47:48;6.20;;;5.07;;
10509;SDS011;5303;53.266;10.410;2023-08-30T09:50:17;7.80;;;5.27;;
10509;SDS011;5303;53.266;10.410;2023-08-30T09:52:47;6.23;;;5.63;;
10509;SDS011;5303;53.266;10.410;2023-08-30T09:55:16;7.07;;;5.53;;
10509;SDS011;5303;53.266;10.410;2023-08-30T09:57:43;5.77;;;4.50;;
10509;SDS011;5303;53.266;10.410;2023-08-30T10:00:09;6.77;;;5.23;;
10509;SDS011;5303;53.266;10.410;2023-08-30T10:02:37;5.13;;;4.13;;
10509;SDS011;5303;53.266;10.410;2023-08-30T10:05:06;5.50;;;4.90;;
10509;SDS011;5303;53.266;10.410;2023-08-30T10:07:33;7.43;;;5.07;;
10509;SDS011;5303;53.266;10.410;2023-08-30T10:10:01;7.07;;;5.47;;
10509;SDS011;5303;53.266;10.410;2023-08-30T10:12:29;8.00;;;6.27;;
10509;SDS011;5303;53.266;10.410;2023-08-30T10:14:56;7.67;;;5.60;;
10509;SDS011;5303;53.266;10.410;2023-08-30T10:17:22;9.37;;;5.50;;
10509;SDS011;5303;53.266;10.410;2023-08-30T10:19:52;5.83;;;5.17;;
10509;SDS011;5303;53.266;10.410;2023-08-30T10:22:19;10.33;;;5.77;;
10509;SDS011;5303;53.266;10.410;2023-08-30T10:24:57;7.10;;;5.50;;
10509;SDS011;5303;53.266;10.410;2023-08-30T10:27:27;7.53;;;4.67;;
10509;SDS011;5303;53.266;10.410;2023-08-30T10:29:54;8.43;;;5.60;;
10509;SDS011;5303;53.266;10.410;2023-08-30T10:32:20;6.90;;;6.20;;
10509;SDS011;5303;53.266;10.410;2023-08-30T10:34:49;8.00;;;6.00;;
10509;SDS011;5303;53.266;10.410;2023-08-30T10:37:15;8.20;;;5.53;;
10509;SDS011;5303;53.266;10.410;2023-08-30T10:39:42;5.70;;;4.97;;
10509;SDS011;5303;53.266;10.410;2023-08-30T10:42:14;7.70;;;5.53;;
10509;SDS011;5303;53.266;10.410;2023-08-30T10:44:47;6.72;;;5.82;;
10509;SDS011;5303;53.266;10.410;2023-08-30T10:47:22;5.88;;;4.78;;
10509;SDS011;5303;53.266;10.410;2023-08-30T10:49:48;7.38;;;5.28;;
10509;SDS011;5303;53.266;10.410;2023-08-30T10:52:14;6.80;;;5.80;;
10509;SDS011;5303;53.266;10.410;2023-08-30T10:54:39;6.13;;;5.53;;
10509;SDS011;5303;53.266;10.410;2023-08-30T10:57:05;8.15;;;5.80;;
10509;SDS011;5303;53.266;10.410;2023-08-30T10:59:37;7.05;;;6.00;;
10509;SDS011;5303;53.266;10.410;2023-08-30T11:02:02;6.43;;;5.82;;
10509;SDS011;5303;53.266;10.410;2023-08-30T11:04:28;7.63;;;5.97;;
10509;SDS011;5303;53.266;10.410;2023-08-30T11:06:54;11.47;;;7.33;;
10509;SDS011;5303;53.266;10.410;2023-08-30T11:09:21;7.73;;;6.00;;
10509;SDS011;5303;53.266;10.410;2023-08-30T11:11:47;6.93;;;6.10;;
10509;SDS011;5303;53.266;10.410;2023-08-30T11:14:14;8.47;;;6.30;;
10509;SDS011;5303;53.266;10.410;2023-08-30T11:16:39;7.10;;;6.13;;
10509;SDS011;5303;53.266;10.410;2023-08-30T11:19:06;7.93;;;6.00;;
10509;SDS011;5303;53.266;10.410;2023-08-30T11:21:53;7.70;;;5.30;;
10509;SDS011;5303;53.266;10.410;2023-08-30T11:24:18;6.20;;;5.60;;
10509;SDS011;5303;53.266;10.410;2023-08-30T11:26:43;8.93;;;5.73;;
10509;SDS011;5303;53.266;10.410;2023-08-30T11:29:08;5.68;;;5.15;;
10509;SDS011;5303;53.266;10.410;2023-08-30T11:31:34;5.73;;;5.20;;
10509;SDS011;5303;53.266;10.410;2023-08-30T11:34:00;6.70;;;5.17;;
10509;SDS011;5303;53.266;10.410;2023-08-30T11:36:29;8.63;;;5.00;;
10509;SDS011;5303;53.266;10.410;2023-08-30T11:38:56;8.27;;;5.00;;
10509;SDS011;5303;53.266;10.410;2023-08-30T11:41:22;6.17;;;5.00;;
10509;SDS011;5303;53.266;10.410;2023-08-30T11:43:48;5.43;;;4.43;;
10509;SDS011;5303;53.266;10.410;2023-08-30T11:46:14;6.60;;;4.18;;
10509;SDS011;5303;53.266;10.410;2023-08-30T11:48:41;5.17;;;4.67;;
10509;SDS011;5303;53.266;10.410;2023-08-30T11:51:07;6.33;;;4.23;;
10509;SDS011;5303;53.266;10.410;2023-08-30T11:53:33;6.33;;;4.87;;
10509;SDS011;5303;53.266;10.410;2023-08-30T11:55:59;5.83;;;4.47;;
10509;SDS011;5303;53.266;10.410;2023-08-30T11:58:25;5.47;;;4.30;;
10509;SDS011;5303;53.266;10.410;2023-08-30T12:00:50;7.77;;;4.37;;
10509;SDS011;5303;53.266;10.410;2023-08-30T12:03:16;5.07;;;4.13;;
10509;SDS011;5303;53.266;10.410;2023-08-30T12:05:45;6.80;;;4.70;;
10509;SDS011;5303;53.266;10.410;2023-08-30T12:08:17;6.87;;;5.10;;
10509;SDS011;5303;53.266;10.410;2023-08-30T12:10:53;5.20;;;4.00;;
10509;SDS011;5303;53.266;10.410;2023-08-30T12:13:20;4.67;;;4.17;;
10509;SDS011;5303;53.266;10.410;2023-08-30T12:15:55;6.77;;;3.90;;
10509;SDS011;5303;53.266;10.410;2023-08-30T12:18:42;4.87;;;4.33;;
10509;SDS011;5303;53.266;10.410;2023-08-30T12:21:07;5.40;;;4.00;;
10509;SDS011;5303;53.266;10.410;2023-08-30T12:23:42;5.53;;;3.80;;
10509;SDS011;5303;53.266;10.410;2023-08-30T12:26:08;4.30;;;3.67;;
10509;SDS011;5303;53.266;10.410;2023-08-30T12:28:38;3.70;;;3.33;;
10509;SDS011;5303;53.266;10.410;2023-08-30T12:31:05;4.20;;;3.80;;
10509;SDS011;5303;53.266;10.410;2023-08-30T12:33:32;4.68;;;4.07;;
10509;SDS011;5303;53.266;10.410;2023-08-30T12:35:58;5.20;;;3.80;;
10509;SDS011;5303;53.266;10.410;2023-08-30T12:38:24;3.23;;;3.03;;
10509;SDS011;5303;53.266;10.410;2023-08-30T12:40:50;3.80;;;3.30;;
10509;SDS011;5303;53.266;10.410;2023-08-30T12:43:17;5.43;;;3.40;;
10509;SDS011;5303;53.266;10.410;2023-08-30T12:45:44;3.97;;;3.55;;
10509;SDS011;5303;53.266;10.410;2023-08-30T12:48:10;4.18;;;3.42;;
10509;SDS011;5303;53.266;10.410;2023-08-30T12:50:37;4.10;;;3.40;;
10509;SDS011;5303;53.266;10.410;2023-08-30T12:53:06;4.53;;;3.80;;
10509;SDS011;5303;53.266;10.410;2023-08-30T12:55:32;6.55;;;4.00;;
10509;SDS011;5303;53.266;10.410;2023-08-30T12:57:59;5.07;;;3.83;;
10509;SDS011;5303;53.266;10.410;2023-08-30T13:00:25;5.30;;;3.60;;
10509;SDS011;5303;53.266;10.410;2023-08-30T13:02:50;4.07;;;3.63;;
10509;SDS011;5303;53.266;10.410;2023-08-30T13:05:16;6.50;;;3.88;;
10509;SDS011;5303;53.266;10.410;2023-08-30T13:07:42;5.00;;;4.15;;
10509;SDS011;5303;53.266;10.410;2023-08-30T13:10:07;4.32;;;3.03;;
10509;SDS011;5303;53.266;10.410;2023-08-30T13:12:33;4.80;;;4.07;;
10509;SDS011;5303;53.266;10.410;2023-08-30T13:14:58;4.65;;;3.60;;
10509;SDS011;5303;53.266;10.410;2023-08-30T13:17:24;8.73;;;4.68;;
10509;SDS011;5303;53.266;10.410;2023-08-30T13:19:49;5.68;;;3.70;;
10509;SDS011;5303;53.266;10.410;2023-08-30T13:22:14;4.13;;;3.73;;
10509;SDS011;5303;53.266;10.410;2023-08-30T13:24:40;5.22;;;3.88;;
10509;SDS011;5303;53.266;10.410;2023-08-30T13:27:06;6.80;;;4.10;;
10509;SDS011;5303;53.266;10.410;2023-08-30T13:29:31;4.82;;;3.80;;
10509;SDS011;5303;53.266;10.410;2023-08-30T13:31:56;4.15;;;3.75;;
10509;SDS011;5303;53.266;10.410;2023-08-30T13:34:22;4.15;;;3.75;;
10509;SDS011;5303;53.266;10.410;2023-08-30T13:36:47;4.03;;;3.53;;
10509;SDS011;5303;53.266;10.410;2023-08-30T13:39:12;4.90;;;4.40;;
10509;SDS011;5303;53.266;10.410;2023-08-30T13:41:37;6.37;;;4.23;;
10509;SDS011;5303;53.266;10.410;2023-08-30T13:44:03;5.90;;;4.38;;
10509;SDS011;5303;53.266;10.410;2023-08-30T13:46:29;5.60;;;4.63;;
10509;SDS011;5303;53.266;10.410;2023-08-30T13:48:54;6.28;;;4.90;;
10509;SDS011;5303;53.266;10.410;2023-08-30T13:51:21;6.25;;;4.43;;
10509;SDS011;5303;53.266;10.410;2023-08-30T13:53:47;6.78;;;4.63;;
10509;SDS011;5303;53.266;10.410;2023-08-30T13:56:12;4.68;;;3.97;;
10509;SDS011;5303;53.266;10.410;2023-08-30T13:58:37;4.88;;;3.60;;
10509;SDS011;5303;53.266;10.410;2023-08-30T14:01:03;6.38;;;3.83;;
10509;SDS011;5303;53.266;10.410;2023-08-30T14:03:29;6.18;;;3.90;;
10509;SDS011;5303;53.266;10.410;2023-08-30T14:05:55;6.47;;;3.92;;
10509;SDS011;5303;53.266;10.410;2023-08-30T14:08:20;6.57;;;4.22;;
10509;SDS011;5303;53.266;10.410;2023-08-30T14:10:45;4.93;;;3.58;;
10509;SDS011;5303;53.266;10.410;2023-08-30T14:13:10;4.03;;;3.60;;
10509;SDS011;5303;53.266;10.410;2023-08-30T14:15:36;6.93;;;3.83;;
10509;SDS011;5303;53.266;10.410;2023-08-30T14:18:01;5.90;;;4.03;;
10509;SDS011;5303;53.266;10.410;2023-08-30T14:20:27;6.13;;;4.00;;
10509;SDS011;5303;53.266;10.410;2023-08-30T14:22:53;5.35;;;4.10;;
10509;SDS011;5303;53.266;10.410;2023-08-30T14:25:18;6.47;;;3.92;;
10509;SDS011;5303;53.266;10.410;2023-08-30T14:27:43;4.10;;;3.72;;
10509;SDS011;5303;53.266;10.410;2023-08-30T14:30:09;5.40;;;3.75;;
10509;SDS011;5303;53.266;10.410;2023-08-30T14:32:34;4.47;;;3.70;;
10509;SDS011;5303;53.266;10.410;2023-08-30T14:35:00;4.25;;;3.70;;
10509;SDS011;5303;53.266;10.410;2023-08-30T14:37:25;4.28;;;3.15;;
10509;SDS011;5303;53.266;10.410;2023-08-30T14:39:52;6.55;;;3.90;;
10509;SDS011;5303;53.266;10.410;2023-08-30T14:42:19;3.67;;;3.38;;
10509;SDS011;5303;53.266;10.410;2023-08-30T14:44:48;4.38;;;3.40;;
10509;SDS011;5303;53.266;10.410;2023-08-30T14:47:14;4.78;;;3.28;;
10509;SDS011;5303;53.266;10.410;2023-08-30T14:49:39;5.70;;;3.55;;
10509;SDS011;5303;53.266;10.410;2023-08-30T14:52:05;4.47;;;3.55;;
10509;SDS011;5303;53.266;10.410;2023-08-30T14:54:30;3.50;;;3.17;;
10509;SDS011;5303;53.266;10.410;2023-08-30T14:56:55;4.72;;;3.20;;